Latest Weather Observations for Frankston

IDV60901

Issued at 2:41 pm EST Friday 18 August 2017 (issued every 10 minutes, with the page automatically refreshed every 10 minutes)

About weather observations | Map of Melbourne area stations | Latest observations for Melbourne area | Other Formats
Station Details ID: 086371 Name: FRANKSTON AWS Lat: -38.15 Lon: 145.12 Height: 6.0 m
Data from the previous 72 hours. | See also: Recent months at Frankston
Date/Time
EST
Temp
°C
App
Temp
°C
Dew
Point
°C
Rel
Hum
%
Delta-T
°C
Wind Press
QNH
hPa
Press
MSL
hPa
Rain since
9am
mm
Dir  Spd
km/h
Gust
km/h
Spd
kts
Gust
kts
18/02:30pm 8.4 4.4 5.0 79 1.5 SSW 15 22 8 12 - - -
18/02:13pm 8.0 0.6 4.2 77 1.7 W 32 52 17 28 - - -
18/02:00pm 9.8 2.8 5.8 76 1.8 W 32 37 17 20 - - -
18/01:30pm 8.2 4.2 4.8 79 1.5 SW 15 22 8 12 - - -
18/01:15pm 8.6 2.8 4.6 76 1.8 WSW 24 32 13 17 - - -
18/01:00pm 9.1 0.9 4.7 74 2.0 W 37 48 20 26 - - -
18/12:30pm 9.3 -1.0 4.7 73 2.0 WSW 48 59 26 32 - - -
18/12:19pm 9.8 0.5 5.0 72 2.2 W 43 67 23 36 - - -
18/12:00pm 9.8 0.9 5.2 73 2.1 W 41 50 22 27 - - -
18/11:30am 9.3 0.5 5.5 77 1.7 WNW 41 52 22 28 - - -
18/11:00am 9.2 1.1 5.2 76 1.8 W 37 46 20 25 - - -
18/10:30am 9.1 0.3 5.7 79 1.5 WNW 41 50 22 27 - - -
18/10:00am 8.8 -0.1 5.2 78 1.6 WNW 41 50 22 27 - - -
18/09:30am 9.1 -0.4 4.9 75 1.9 W 44 56 24 30 - - -
18/09:00am 8.9 -0.9 5.3 78 1.6 WNW 46 57 25 31 - - -
18/08:30am 8.9 0.1 5.6 80 1.5 WNW 41 54 22 29 - - -
18/08:00am 9.0 0.2 5.7 80 1.5 WNW 41 50 22 27 - - -
18/07:30am 8.9 0.5 5.8 81 1.4 WNW 39 46 21 25 - - -
18/07:00am 8.9 -0.3 5.3 78 1.6 WNW 43 56 23 30 - - -
18/06:30am 8.9 -0.4 5.1 77 1.7 WNW 43 54 23 29 - - -
18/06:00am 8.9 0.8 5.1 77 1.7 WNW 37 46 20 25 - - -
18/05:30am 9.1 0.2 5.1 76 1.8 WNW 41 52 22 28 - - -
18/05:00am 9.1 -0.4 4.7 74 2.0 WNW 44 52 24 28 - - -
18/04:30am 9.4 0.3 4.0 69 2.4 WNW 41 50 22 27 - - -
18/04:00am 9.7 1.1 4.5 70 2.3 WNW 39 52 21 28 - - -
18/03:30am 9.7 1.9 4.7 71 2.2 WNW 35 46 19 25 - - -
18/03:00am 9.4 2.9 4.8 73 2.1 NW 28 37 15 20 - - -
18/02:30am 9.6 2.3 4.6 71 2.2 NW 32 41 17 22 - - -
18/02:00am 9.7 2.4 4.5 70 2.3 NW 32 39 17 21 - - -
18/01:30am 9.8 3.3 4.8 71 2.2 NW 28 37 15 20 - - -
18/01:00am 9.7 2.3 4.9 72 2.2 NW 33 39 18 21 - - -
18/12:30am 9.6 2.8 5.0 73 2.1 NW 30 35 16 19 - - -
18/12:00am 9.4 2.5 4.8 73 2.1 NNW 30 35 16 19 - - -
 
Date/Time
EST
Temp
°C
App
Temp
°C
Dew
Point
°C
Rel
Hum
%
Delta-T
°C
Wind Press
QNH
hPa
Press
MSL
hPa
Rain since
9am
mm
Dir  Spd
km/h
Gust
km/h
Spd
kts
Gust
kts
17/11:30pm 9.6 2.8 5.0 73 2.1 NW 30 37 16 20 - - -
17/11:00pm 9.9 3.5 5.3 73 2.1 NW 28 33 15 18 - - -
17/10:30pm 10.1 3.0 5.3 72 2.2 NW 32 39 17 21 - - -
17/10:00pm 10.1 3.7 5.1 71 2.3 NW 28 39 15 21 - - -
17/09:30pm 10.1 4.1 5.3 72 2.2 NNW 26 35 14 19 - - -
17/09:00pm 9.8 3.1 5.8 76 1.8 NNW 30 37 16 20 - - -
17/08:30pm 9.7 3.4 5.7 76 1.8 NNW 28 33 15 18 - - -
17/08:00pm 9.8 3.9 5.8 76 1.8 NW 26 30 14 16 - - -
17/07:30pm 10.0 3.3 5.8 75 1.9 NW 30 37 16 20 - - -
17/07:00pm 10.1 3.5 5.9 75 1.9 WNW 30 39 16 21 - - -
17/06:30pm 10.9 5.2 6.6 75 2.0 WNW 26 33 14 18 - - -
17/06:00pm 10.7 5.3 6.5 75 2.0 NW 24 30 13 16 - - -
17/05:30pm 10.7 4.9 6.1 73 2.1 WNW 26 32 14 17 - - -
17/05:00pm 10.9 4.9 5.4 69 2.5 WNW 26 30 14 16 - - -
17/04:33pm 10.6 -0.4 4.9 68 2.6 WNW 52 70 28 38 - - -
17/04:30pm 11.1 -0.7 5.0 66 2.8 WNW 56 70 30 38 - - -
17/04:23pm 12.0 2.5 3.8 57 3.7 WNW 43 69 23 37 - - -
17/04:17pm 12.3 5.9 6.8 69 2.6 WNW 30 50 16 27 - - -
17/04:00pm 12.2 6.1 6.7 69 2.6 W 28 33 15 18 - - -
17/03:30pm 12.6 6.8 6.4 66 2.9 WNW 26 35 14 19 - - -
17/03:00pm 12.5 6.3 6.3 66 2.9 WNW 28 33 15 18 - - -
17/02:30pm 12.7 6.0 5.8 63 3.2 WNW 30 37 16 20 - - -
17/02:00pm 12.7 6.8 5.8 63 3.2 WNW 26 32 14 17 - - -
17/01:30pm 12.5 6.3 6.3 66 2.9 WNW 28 37 15 20 - - -
17/01:00pm 12.2 6.5 6.9 70 2.5 WNW 26 33 14 18 - - -
17/12:30pm 12.3 6.5 6.4 67 2.8 WNW 26 35 14 19 - - -
17/12:00pm 11.2 5.9 6.7 74 2.1 NNW 24 30 13 16 - - -
17/11:30am 11.0 5.7 6.6 74 2.1 NNW 24 32 13 17 - - -
17/11:00am 10.5 5.5 6.5 76 1.9 N 22 28 12 15 - - -
17/10:30am 10.2 4.8 6.4 77 1.8 NNW 24 30 13 16 - - -
17/10:00am 9.9 3.0 6.3 78 1.7 NNW 32 37 17 20 - - -
17/09:30am 10.0 2.8 6.0 76 1.8 NNW 33 41 18 22 - - -
17/09:00am 10.2 1.5 6.0 75 1.9 NNW 41 52 22 28 - - -
17/08:30am 11.7 4.8 7.4 75 2.1 N 33 44 18 24 - - -
17/08:00am 11.4 6.3 7.7 78 1.8 N 24 28 13 15 - - -
17/07:30am 11.7 7.3 7.6 76 2.0 NNW 20 24 11 13 - - -
17/07:00am 11.7 7.4 7.8 77 1.9 N 20 26 11 14 - - -
17/06:30am 11.7 7.3 7.6 76 2.0 NNW 20 26 11 14 - - -
17/06:00am 11.9 7.5 7.4 74 2.2 NW 20 28 11 15 - - -
17/05:30am 11.8 6.4 7.9 77 1.9 NW 26 30 14 16 - - -
17/05:00am 12.0 6.1 7.5 74 2.2 NW 28 33 15 18 - - -
17/04:30am 12.2 6.3 7.7 74 2.2 NW 28 35 15 19 - - -
17/04:00am 12.1 6.7 8.0 76 2.0 NW 26 32 14 17 - - -
17/03:30am 12.4 6.6 8.1 75 2.1 NW 28 39 15 21 - - -
17/03:00am 12.3 5.9 8.4 77 1.9 NW 32 41 17 22 - - -
17/02:30am 12.0 6.0 8.8 81 1.6 NW 30 39 16 21 - - -
17/02:00am 11.9 6.3 8.6 80 1.6 NW 28 35 15 19 - - -
17/01:30am 12.1 5.9 8.0 76 2.0 NW 30 39 16 21 - - -
17/01:00am 11.9 6.6 8.4 79 1.7 NW 26 37 14 20 - - -
17/12:30am 11.9 6.1 7.8 76 2.0 NW 28 33 15 18 - - -
17/12:00am 12.2 6.3 7.7 74 2.2 NNW 28 35 15 19 - - -
 
Date/Time
EST
Temp
°C
App
Temp
°C
Dew
Point
°C
Rel
Hum
%
Delta-T
°C
Wind Press
QNH
hPa
Press
MSL
hPa
Rain since
9am
mm
Dir  Spd
km/h
Gust
km/h
Spd
kts
Gust
kts
16/11:30pm 12.4 7.3 7.7 73 2.3 N 24 30 13 16 - - -
16/11:00pm 12.2 7.1 7.5 73 2.3 NNW 24 32 13 17 - - -
16/10:30pm 12.7 6.0 7.2 69 2.7 NNW 32 41 17 22 - - -
16/10:00pm 12.5 5.8 7.4 71 2.5 NNW 32 39 17 21 - - -
16/09:30pm 12.4 6.5 7.5 72 2.4 NW 28 37 15 20 - - -
16/09:00pm 12.5 6.6 7.4 71 2.5 NNW 28 35 15 19 - - -
16/08:30pm 12.8 7.3 7.5 70 2.6 NNW 26 33 14 18 - - -
16/08:00pm 12.9 7.7 7.1 68 2.8 NNW 24 32 13 17 - - -
16/07:30pm 12.8 7.2 7.3 69 2.7 NNW 26 32 14 17 - - -
16/07:00pm 12.4 8.0 7.5 72 2.4 NW 20 24 11 13 - - -
16/06:30pm 12.5 8.4 7.8 73 2.3 NW 19 24 10 13 - - -
16/06:00pm 12.7 8.5 7.6 71 2.5 WNW 19 24 10 13 - - -
16/05:30pm 12.8 7.3 7.5 70 2.6 W 26 33 14 18 - - -
16/05:00pm 13.6 7.9 6.7 63 3.3 WNW 26 33 14 18 - - -
16/04:30pm 12.6 8.3 7.7 72 2.4 NW 20 26 11 14 - - -
16/04:00pm 12.6 6.2 7.1 69 2.7 NW 30 37 16 20 - - -
16/03:30pm 12.9 6.1 6.7 66 3.0 WNW 32 44 17 24 - - -
16/03:00pm 12.1 4.6 6.4 68 2.7 W 35 48 19 26 - - -
16/02:44pm 12.2 6.3 7.7 74 2.2 WNW 28 54 15 29 - - -
16/02:30pm 11.9 6.0 7.4 74 2.2 WNW 28 33 15 18 - - -
16/02:00pm 12.3 5.0 7.2 71 2.5 WNW 35 44 19 24 - - -
16/01:30pm 13.0 4.8 6.6 65 3.1 WNW 39 50 21 27 - - -
16/01:00pm 13.3 5.4 6.4 63 3.3 WNW 37 48 20 26 - - -
16/12:30pm 13.1 5.3 6.5 64 3.2 WNW 37 46 20 25 - - -
16/12:00pm 13.0 5.5 6.4 64 3.1 WNW 35 46 19 25 - - -
16/11:30am 12.8 5.3 6.4 65 3.0 WNW 35 46 19 25 - - -
16/11:00am 12.6 5.1 6.4 66 2.9 WNW 35 46 19 25 - - -
16/10:30am 12.6 3.9 6.0 64 3.1 WNW 41 50 22 27 - - -
16/10:00am 12.5 4.2 5.9 64 3.1 WNW 39 54 21 29 - - -
16/09:30am 12.1 3.8 6.2 67 2.8 NW 39 50 21 27 - - -
16/09:00am 11.9 3.7 6.6 70 2.5 WNW 39 48 21 26 - - -
16/08:30am 12.0 4.2 6.5 69 2.6 WNW 37 48 20 26 - - -
16/08:00am 12.3 3.1 6.4 67 2.8 WNW 44 56 24 30 - - -
16/07:41am 12.5 3.2 6.1 65 3.0 WNW 44 63 24 34 - - -
16/07:30am 12.7 3.4 6.1 64 3.1 NW 44 61 24 33 - - -
16/07:00am 12.6 4.0 6.6 67 2.9 NW 41 54 22 29 - - -
16/06:30am 12.4 5.1 7.3 71 2.5 NNW 35 46 19 25 - - -
16/06:00am 12.6 5.4 7.5 71 2.5 NNW 35 48 19 26 - - -
16/05:30am 12.7 5.4 7.4 70 2.6 NNW 35 44 19 24 - - -
16/05:00am 12.5 6.8 8.2 75 2.1 NNW 28 35 15 19 - - -
16/04:30am 12.1 6.0 8.2 77 1.9 NNW 30 35 16 19 - - -
16/04:00am 11.4 6.0 7.9 79 1.7 NW 26 32 14 17 - - -
16/03:42am 11.5 3.4 7.0 74 2.1 WNW 39 59 21 32 - - -
16/03:30am 11.0 3.3 8.8 86 1.1 WNW 39 56 21 30 - - -
16/03:23am 11.1 5.3 7.8 80 1.6 WNW 28 48 15 26 - - -
16/03:00am 11.7 8.7 9.1 84 1.3 NNW 15 19 8 10 - - -
16/02:30am 11.8 8.6 8.6 81 1.6 NW 15 17 8 9 - - -
16/02:00am 12.4 7.7 9.1 80 1.7 W 24 30 13 16 - - -
16/01:46am 13.3 7.7 8.8 74 2.3 NW 28 44 15 24 - - -
16/01:30am 13.6 9.0 9.5 76 2.1 NNW 24 28 13 15 - - -
16/01:00am 12.4 10.0 10.0 85 1.2 NNW 13 17 7 9 - - -
16/12:30am 13.2 9.7 10.2 82 1.6 NNW 19 22 10 12 - - -
16/12:00am 13.4 9.3 10.2 81 1.7 NNW 22 28 12 15 - - -
 
Date/Time
EST
Temp
°C
App
Temp
°C
Dew
Point
°C
Rel
Hum
%
Delta-T
°C
Wind Press
QNH
hPa
Press
MSL
hPa
Rain since
9am
mm
Dir  Spd
km/h
Gust
km/h
Spd
kts
Gust
kts
15/11:30pm 13.9 8.7 10.3 79 1.9 NNW 28 37 15 20 - - -
15/11:00pm 13.6 9.6 10.4 81 1.7 NNW 22 30 12 16 - - -
15/10:30pm 13.6 9.3 10.8 83 1.5 N 24 30 13 16 - - -
15/10:00pm 13.8 8.5 11.1 84 1.4 N 30 35 16 19 - - -
15/09:30pm 14.3 10.2 11.5 83 1.5 N 24 33 13 18 - - -
15/09:00pm 13.8 12.5 12.5 92 0.7 NNW 11 24 6 13 - - -
15/08:30pm 12.6 11.0 11.5 93 0.6 N 11 13 6 7 - - -
15/08:00pm 13.0 9.0 11.7 92 0.7 NNW 24 28 13 15 - - -
15/07:30pm 13.4 8.6 11.8 90 0.9 NNW 28 33 15 18 - - -
15/07:00pm 12.6 10.6 11.5 93 0.6 WSW 13 17 7 9 - - -
15/06:30pm 12.7 11.4 11.3 91 0.7 WSW 9 15 5 8 - - -
15/06:00pm 13.3 9.9 10.5 83 1.5 W 19 26 10 14 - - -
15/05:30pm 14.9 10.3 11.1 78 2.0 N 26 32 14 17 - - -
15/05:00pm 15.3 10.8 11.5 78 2.0 N 26 33 14 18 - - -
15/04:30pm 14.9 10.8 11.3 79 1.9 N 24 28 13 15 - - -
15/04:00pm 14.8 11.4 11.2 79 1.9 N 20 26 11 14 - - -
15/03:30pm 14.6 10.8 11.0 79 1.9 N 22 28 12 15 - - -
15/03:00pm 14.2 10.5 10.2 77 2.1 NNE 20 26 11 14 - - -

Latest Capital City Observations: Canberra | Sydney | Melbourne | Brisbane | Adelaide | Perth | Hobart | Darwin

Other Formats:

Comma delimited format used in spreadsheet applications
http://www.bom.gov.au/fwo/IDV60901/IDV60901.94871.axf

JavaScript Object Notation format (JSON) in row-major order
http://www.bom.gov.au/fwo/IDV60901/IDV60901.94871.json